Guangzhou, China
Current Conditions -  °F | °C
As of 9:30 AM on Thursday 23 Oct 2014 (Local Time) from ZGGG Reporting Station
Broken Clouds Broken Clouds  
Wind Chill: 75°   Ceiling: 5000
Heat Index: 75°   Visibility: 6mi
Dew Point: 55°   Wind: 4mph
Humidity: 50%   Direction: 60°ENE
Pressure: 30.09"   Gusts: NA
Location:  23.12°N, 113.25°E
Report Text: ZGGG 230130Z 06002MPS 9999 BKN050 24/13 Q1019 NOSIG
Loading
Personal Weather Stations






























Interactive Weather Map
Tropical Storm Tracking
New forecast layout! Learn more

10-Day Weather Forecast

Advertisements
Track Severe Weather on mobile